Time;durP1;ratioP1;P1;durP2;ratioP2;P2;SDS_P1;SDS_P2;PMS_P1;PMS_P2;Temp;Humidity;BMP_temperature;BMP_pressure;BME280_temperature;BME280_humidity;BME280_pressure;Samples;Min_cycle;Max_cycle;Signal;HPM_P1;HPM_P2
2023/10/29 00:00:07;;;;;;;;;;;10.90;99.90;;;;;;5063738;28;19921;-75
2023/10/29 00:02:34;;;;;;;;;;;10.90;99.90;;;;;;5064005;28;19927;-74
2023/10/29 00:05:01;;;;;;;;;;;10.90;99.90;;;;;;5063921;28;20273;-75
2023/10/29 00:07:28;;;;;;;;;;;10.90;99.90;;;;;;5063930;28;19927;-74
2023/10/29 00:09:55;;;;;;;;;;;10.90;99.90;;;;;;5063795;28;19959;-75
2023/10/29 00:12:21;;;;;;;;;;;11.00;99.90;;;;;;5063757;28;19952;-75
2023/10/29 00:14:49;;;;;;;;;;;11.00;99.90;;;;;;5063278;28;19956;-75
2023/10/29 00:17:16;;;;;;;;;;;11.00;99.90;;;;;;5063688;28;19959;-75
2023/10/29 00:19:43;;;;;;;;;;;11.00;99.90;;;;;;5063440;28;19921;-75
2023/10/29 00:22:10;;;;;;;;;;;11.00;99.90;;;;;;5063620;28;19921;-75
2023/10/29 00:24:37;;;;;;;;;;;11.10;99.90;;;;;;5063631;28;19980;-75
2023/10/29 00:27:03;;;;;;;;;;;11.10;99.90;;;;;;5063725;28;19920;-75
2023/10/29 00:29:30;;;;;;;;;;;11.10;99.90;;;;;;5063242;28;19956;-75
2023/10/29 00:31:58;;;;;;;;;;;11.10;99.90;;;;;;5063212;28;19983;-75
2023/10/29 00:34:25;;;;;;;;;;;11.10;99.90;;;;;;5063445;28;19956;-75
2023/10/29 00:36:51;;;;;;;;;;;11.10;99.90;;;;;;5063252;28;19963;-75
2023/10/29 00:39:18;;;;;;;;;;;11.10;99.90;;;;;;5063240;28;20249;-75
2023/10/29 00:41:45;;;;;;;;;;;11.20;99.90;;;;;;5063362;28;19963;-75
2023/10/29 00:44:12;;;;;;;;;;;11.10;99.90;;;;;;5063366;28;19952;-75
2023/10/29 00:46:40;;;;;;;;;;;11.20;99.90;;;;;;5063463;28;19983;-75
2023/10/29 00:49:08;;;;;;;;;;;11.20;99.90;;;;;;5063210;28;19921;-75
2023/10/29 00:51:35;;;;;;;;;;;11.10;99.90;;;;;;5063172;28;19927;-75
2023/10/29 00:54:02;;;;;;;;;;;11.20;99.90;;;;;;5063625;28;20178;-75
2023/10/29 00:56:29;;;;;;;;;;;11.10;99.90;;;;;;5063452;28;19975;-75
2023/10/29 00:58:55;;;;;;;;;;;11.10;99.90;;;;;;5063084;28;19920;-75
2023/10/29 01:01:22;;;;;;;;;;;11.10;99.90;;;;;;5062954;28;20441;-75
2023/10/29 01:03:49;;;;;;;;;;;11.10;99.90;;;;;;5063016;28;19931;-75
2023/10/29 01:06:17;;;;;;;;;;;11.10;99.90;;;;;;5063250;28;19927;-75
2023/10/29 01:08:44;;;;;;;;;;;11.10;99.90;;;;;;5063034;28;19959;-75
2023/10/29 01:11:11;;;;;;;;;;;11.20;99.90;;;;;;5063233;28;19964;-75
2023/10/29 01:13:38;;;;;;;;;;;11.10;99.90;;;;;;5063482;28;19927;-75
2023/10/29 01:16:05;;;;;;;;;;;11.10;99.90;;;;;;5063310;28;19967;-75
2023/10/29 01:18:32;;;;;;;;;;;11.10;99.90;;;;;;5062605;28;19921;-75
2023/10/29 01:20:59;;;;;;;;;;;11.10;99.90;;;;;;5062586;28;19956;-75
2023/10/29 01:23:28;;;;;;;;;;;11.10;99.90;;;;;;5062954;28;20210;-75
2023/10/29 01:25:57;;;;;;;;;;;11.20;99.90;;;;;;5062831;28;19928;-75
2023/10/29 01:28:24;;;;;;;;;;;11.20;99.90;;;;;;5062660;28;19920;-75
2023/10/29 01:30:50;;;;;;;;;;;11.20;99.90;;;;;;5062874;28;19956;-75
2023/10/29 01:33:17;;;;;;;;;;;11.20;99.90;;;;;;5063036;28;19927;-75
2023/10/29 01:35:43;;;;;;;;;;;11.20;99.90;;;;;;5062724;28;20257;-75
2023/10/29 01:38:10;;;;;;;;;;;11.20;99.90;;;;;;5062630;28;20110;-75
2023/10/29 01:40:38;;;;;;;;;;;11.10;99.90;;;;;;5062874;28;19929;-75
2023/10/29 01:43:05;;;;;;;;;;;11.10;99.90;;;;;;5063066;28;19963;-75
2023/10/29 01:45:31;;;;;;;;;;;11.10;99.90;;;;;;5063069;28;19984;-75
2023/10/29 01:47:58;;;;;;;;;;;11.20;99.90;;;;;;5064229;28;19956;-76
2023/10/29 01:50:24;;;;;;;;;;;11.10;99.90;;;;;;5066330;28;19980;-75
2023/10/29 01:52:53;;;;;;;;;;;11.10;99.90;;;;;;5066612;28;19925;-75
2023/10/29 01:55:20;;;;;;;;;;;11.10;99.90;;;;;;5066349;28;20218;-75
2023/10/29 01:57:48;;;;;;;;;;;11.10;99.90;;;;;;5066222;28;19921;-75
2023/10/29 02:00:16;;;;;;;;;;;11.10;99.90;;;;;;5066390;28;19956;-75
2023/10/29 02:02:43;;;;;;;;;;;11.10;99.90;;;;;;5065197;28;19980;-75
2023/10/29 02:05:10;;;;;;;;;;;11.10;99.90;;;;;;5059639;28;19920;-75
2023/10/29 02:07:37;;;;;;;;;;;11.10;99.90;;;;;;5065930;28;20171;-75
2023/10/29 02:10:03;;;;;;;;;;;11.10;99.90;;;;;;5066211;28;19921;-75
2023/10/29 02:12:31;;;;;;;;;;;11.10;99.90;;;;;;5065858;28;19963;-75
2023/10/29 02:14:58;;;;;;;;;;;11.10;99.90;;;;;;5066338;28;19920;-75
2023/10/29 02:17:27;;;;;;;;;;;11.10;99.90;;;;;;5065856;28;19984;-76
2023/10/29 02:19:55;;;;;;;;;;;11.10;99.90;;;;;;5065628;28;20121;-75
2023/10/29 02:22:23;;;;;;;;;;;11.10;99.90;;;;;;5065688;28;19921;-76
2023/10/29 02:24:50;;;;;;;;;;;11.10;99.90;;;;;;5066195;28;19927;-75
2023/10/29 02:27:16;;;;;;;;;;;11.10;99.90;;;;;;5065466;28;19988;-75
2023/10/29 02:29:43;;;;;;;;;;;11.10;99.90;;;;;;5065431;28;19927;-75
2023/10/29 02:32:10;;;;;;;;;;;11.10;99.90;;;;;;5065602;28;20103;-75
2023/10/29 02:34:37;;;;;;;;;;;11.10;99.90;;;;;;5065437;28;19963;-76
2023/10/29 02:37:03;;;;;;;;;;;11.10;99.90;;;;;;5065812;28;19988;-75
2023/10/29 02:39:31;;;;;;;;;;;11.10;99.90;;;;;;5065571;28;20243;-75
2023/10/29 02:41:58;;;;;;;;;;;11.20;99.90;;;;;;5065410;28;20262;-75
2023/10/29 02:44:24;;;;;;;;;;;11.20;99.90;;;;;;5065344;28;19921;-75
2023/10/29 02:46:51;;;;;;;;;;;11.20;99.90;;;;;;5065215;28;19920;-75
2023/10/29 02:49:18;;;;;;;;;;;11.20;99.90;;;;;;5065246;28;19927;-75
2023/10/29 02:51:44;;;;;;;;;;;11.20;99.90;;;;;;5065091;28;19920;-75
2023/10/29 02:54:11;;;;;;;;;;;11.10;99.90;;;;;;5065453;28;19995;-75
2023/10/29 02:56:40;;;;;;;;;;;11.20;99.90;;;;;;5065241;28;19980;-75
2023/10/29 02:59:07;;;;;;;;;;;11.20;99.90;;;;;;5064507;28;20210;-75
2023/10/29 03:01:33;;;;;;;;;;;11.20;99.90;;;;;;5065097;28;19964;-75
2023/10/29 03:04:02;;;;;;;;;;;11.20;99.90;;;;;;5057246;28;20008;-75
2023/10/29 03:06:31;;;;;;;;;;;11.00;99.90;;;;;;5065252;28;20122;-75
2023/10/29 03:08:57;;;;;;;;;;;11.00;99.90;;;;;;5064898;28;19992;-75
2023/10/29 03:11:24;;;;;;;;;;;11.00;99.90;;;;;;5064853;28;19984;-76
2023/10/29 03:13:52;;;;;;;;;;;11.00;99.90;;;;;;5064704;28;20113;-75
2023/10/29 03:16:19;;;;;;;;;;;11.00;99.90;;;;;;5064407;28;19971;-75
2023/10/29 03:18:47;;;;;;;;;;;11.00;99.90;;;;;;5064683;28;19927;-75
2023/10/29 03:21:15;;;;;;;;;;;11.00;99.90;;;;;;5064400;28;20121;-75
2023/10/29 03:23:41;;;;;;;;;;;10.90;99.90;;;;;;5064721;28;19952;-75
2023/10/29 03:26:08;;;;;;;;;;;10.90;99.90;;;;;;5061973;28;19976;-75
2023/10/29 03:28:35;;;;;;;;;;;10.80;99.90;;;;;;5064428;28;19920;-76
2023/10/29 03:31:09;;;;;;;;;;;10.90;99.90;;;;;;5064266;28;20233;-75
2023/10/29 03:33:36;;;;;;;;;;;10.80;99.90;;;;;;5064780;28;19956;-75
2023/10/29 03:36:04;;;;;;;;;;;10.80;99.90;;;;;;5064439;28;19921;-75
2023/10/29 03:38:30;;;;;;;;;;;10.70;99.90;;;;;;5064368;28;20114;-75
2023/10/29 03:40:57;;;;;;;;;;;10.80;99.90;;;;;;5063984;28;19984;-75
2023/10/29 03:43:23;;;;;;;;;;;10.70;99.90;;;;;;5064550;28;19996;-75
2023/10/29 03:45:50;;;;;;;;;;;10.70;99.90;;;;;;5064116;28;19935;-75
2023/10/29 03:48:18;;;;;;;;;;;10.70;99.90;;;;;;5064215;28;19953;-75
2023/10/29 03:50:45;;;;;;;;;;;10.60;99.90;;;;;;5064309;28;19960;-75
2023/10/29 03:53:11;;;;;;;;;;;10.70;99.90;;;;;;5064419;28;19980;-75
2023/10/29 03:55:38;;;;;;;;;;;10.70;99.90;;;;;;5064299;28;19983;-75
2023/10/29 03:58:05;;;;;;;;;;;10.60;99.90;;;;;;5063851;28;20233;-75
2023/10/29 04:00:32;;;;;;;;;;;10.60;99.90;;;;;;5063929;28;19952;-75
2023/10/29 04:02:58;;;;;;;;;;;10.60;99.90;;;;;;5064061;28;19920;-75
2023/10/29 04:05:26;;;;;;;;;;;10.50;99.90;;;;;;5064276;28;19927;-75
2023/10/29 04:07:53;;;;;;;;;;;10.50;99.90;;;;;;5063827;28;19963;-75
2023/10/29 04:10:20;;;;;;;;;;;10.50;99.90;;;;;;5063354;28;19927;-75
2023/10/29 04:12:46;;;;;;;;;;;10.40;99.90;;;;;;5063837;28;19983;-75
2023/10/29 04:15:13;;;;;;;;;;;10.30;99.90;;;;;;5063752;28;19921;-75
2023/10/29 04:17:40;;;;;;;;;;;10.30;99.90;;;;;;5063318;28;20217;-75
2023/10/29 04:20:08;;;;;;;;;;;10.40;99.90;;;;;;5063650;28;19927;-75
2023/10/29 04:22:36;;;;;;;;;;;10.30;99.90;;;;;;5063588;28;19943;-75
2023/10/29 04:25:03;;;;;;;;;;;10.30;99.90;;;;;;5063766;28;19979;-75
2023/10/29 04:27:30;;;;;;;;;;;10.20;99.90;;;;;;5063526;28;19963;-75
2023/10/29 04:29:56;;;;;;;;;;;10.20;99.90;;;;;;5063022;28;20340;-75
2023/10/29 04:32:23;;;;;;;;;;;10.20;99.90;;;;;;5063327;28;19952;-75
2023/10/29 04:34:49;;;;;;;;;;;10.20;99.90;;;;;;5063287;28;20214;-75
2023/10/29 04:37:16;;;;;;;;;;;10.30;99.90;;;;;;5063546;28;19920;-75
2023/10/29 04:39:44;;;;;;;;;;;10.30;99.90;;;;;;5062994;28;20232;-75
2023/10/29 04:42:12;;;;;;;;;;;10.30;99.90;;;;;;5062966;28;20389;-75
2023/10/29 04:44:39;;;;;;;;;;;10.20;99.90;;;;;;5063289;28;19921;-75
2023/10/29 04:47:06;;;;;;;;;;;10.20;99.90;;;;;;5063366;28;19921;-75
2023/10/29 04:49:32;;;;;;;;;;;10.20;99.90;;;;;;5063314;28;19956;-75
2023/10/29 04:51:59;;;;;;;;;;;10.20;99.90;;;;;;5055031;28;19920;-75
2023/10/29 04:54:26;;;;;;;;;;;10.10;99.90;;;;;;5062912;28;19927;-75
2023/10/29 04:56:54;;;;;;;;;;;10.10;99.90;;;;;;5063140;28;19984;-75
2023/10/29 04:59:20;;;;;;;;;;;10.10;99.90;;;;;;5063253;28;20174;-75
2023/10/29 05:01:47;;;;;;;;;;;10.10;99.90;;;;;;5061422;28;20272;-75
2023/10/29 05:04:13;;;;;;;;;;;10.10;99.90;;;;;;5063333;28;19983;-75
2023/10/29 05:06:40;;;;;;;;;;;10.00;99.90;;;;;;5063289;28;19979;-75
2023/10/29 05:09:07;;;;;;;;;;;10.00;99.90;;;;;;5063100;28;19988;-75
2023/10/29 05:11:35;;;;;;;;;;;10.10;99.90;;;;;;5063036;28;19921;-76
2023/10/29 05:14:03;;;;;;;;;;;10.00;99.90;;;;;;5055234;28;19959;-75
2023/10/29 05:16:30;;;;;;;;;;;10.00;99.90;;;;;;5063058;28;19921;-75
2023/10/29 05:18:57;;;;;;;;;;;10.00;99.90;;;;;;5063023;28;19928;-76
2023/10/29 05:21:23;;;;;;;;;;;10.00;99.90;;;;;;5063644;28;19921;-76
2023/10/29 05:23:50;;;;;;;;;;;10.00;99.90;;;;;;5067427;28;19963;-75
2023/10/29 05:26:17;;;;;;;;;;;10.00;99.90;;;;;;5066867;28;19988;-75
2023/10/29 05:28:43;;;;;;;;;;;10.00;99.90;;;;;;5066568;28;20215;-76
2023/10/29 05:31:11;;;;;;;;;;;10.00;99.90;;;;;;5066948;28;19984;-76
2023/10/29 05:33:38;;;;;;;;;;;10.00;99.90;;;;;;5066933;28;19952;-75
2023/10/29 05:36:05;;;;;;;;;;;10.00;99.90;;;;;;5066935;28;19968;-75
2023/10/29 05:38:32;;;;;;;;;;;10.00;99.90;;;;;;5066366;28;20384;-76
2023/10/29 05:40:58;;;;;;;;;;;10.00;99.90;;;;;;5066518;28;19956;-75
2023/10/29 05:43:25;;;;;;;;;;;10.00;99.90;;;;;;5066460;28;20229;-76
2023/10/29 05:45:52;;;;;;;;;;;10.10;99.90;;;;;;5066411;28;20414;-76
2023/10/29 05:48:20;;;;;;;;;;;10.00;99.90;;;;;;5066454;28;19921;-75
2023/10/29 05:50:47;;;;;;;;;;;10.00;99.90;;;;;;5066096;28;19921;-75
2023/10/29 05:53:13;;;;;;;;;;;10.00;99.90;;;;;;5066435;28;19983;-76
2023/10/29 05:55:40;;;;;;;;;;;10.00;99.90;;;;;;5066283;28;19985;-76
2023/10/29 05:58:07;;;;;;;;;;;10.00;99.90;;;;;;5066221;28;19920;-76
2023/10/29 06:00:33;;;;;;;;;;;10.00;99.90;;;;;;5066172;28;19920;-75
2023/10/29 06:03:00;;;;;;;;;;;10.10;99.90;;;;;;5058303;28;19991;-75
2023/10/29 06:05:28;;;;;;;;;;;10.10;99.90;;;;;;5066395;28;19952;-75
2023/10/29 06:07:56;;;;;;;;;;;10.10;99.90;;;;;;5066046;28;20000;-75
2023/10/29 06:10:22;;;;;;;;;;;10.20;99.90;;;;;;5066228;28;19925;-75
2023/10/29 06:12:49;;;;;;;;;;;10.20;99.90;;;;;;5066180;28;19967;-75
2023/10/29 06:15:16;;;;;;;;;;;10.30;99.90;;;;;;5065671;28;19932;-75
2023/10/29 06:17:42;;;;;;;;;;;10.40;99.90;;;;;;5065739;28;19920;-75
2023/10/29 06:20:11;;;;;;;;;;;10.40;99.90;;;;;;5065682;28;19980;-74
2023/10/29 06:22:39;;;;;;;;;;;10.40;99.90;;;;;;5066018;28;19920;-76
2023/10/29 06:25:06;;;;;;;;;;;10.50;99.90;;;;;;5065684;28;19981;-75
2023/10/29 06:27:33;;;;;;;;;;;10.50;99.90;;;;;;5065461;28;19956;-76
2023/10/29 06:29:59;;;;;;;;;;;10.50;99.90;;;;;;5057554;28;19921;-76
2023/10/29 06:32:26;;;;;;;;;;;10.50;99.90;;;;;;5065233;28;20198;-76
2023/10/29 06:34:52;;;;;;;;;;;10.50;99.90;;;;;;5065173;28;19927;-75
2023/10/29 06:37:19;;;;;;;;;;;10.60;99.90;;;;;;5065545;28;19951;-76
2023/10/29 06:39:48;;;;;;;;;;;10.60;99.90;;;;;;5065020;28;19920;-76
2023/10/29 06:42:14;;;;;;;;;;;10.70;99.90;;;;;;5065288;28;19935;-76
2023/10/29 06:44:41;;;;;;;;;;;10.70;99.90;;;;;;5065630;28;19984;-75
2023/10/29 06:47:08;;;;;;;;;;;10.70;99.90;;;;;;5065716;28;19920;-75
2023/10/29 06:49:35;;;;;;;;;;;10.70;99.90;;;;;;5064833;28;20210;-75
2023/10/29 06:52:01;;;;;;;;;;;10.70;99.90;;;;;;5065485;28;20233;-75
2023/10/29 06:54:28;;;;;;;;;;;10.70;99.90;;;;;;5064307;28;19984;-76
2023/10/29 06:56:56;;;;;;;;;;;10.70;99.90;;;;;;5063965;28;20150;-75
2023/10/29 06:59:22;;;;;;;;;;;10.70;99.90;;;;;;5064188;28;20365;-75
2023/10/29 07:01:49;;;;;;;;;;;10.70;99.90;;;;;;5062524;28;20047;-76
2023/10/29 07:04:16;;;;;;;;;;;10.70;99.90;;;;;;5053578;28;19970;-76
2023/10/29 07:06:44;;;;;;;;;;;10.80;99.90;;;;;;5064802;28;19927;-76
2023/10/29 07:09:10;;;;;;;;;;;10.80;99.90;;;;;;5064443;28;19928;-76
2023/10/29 07:11:37;;;;;;;;;;;10.70;99.90;;;;;;5064395;28;19956;-76
2023/10/29 07:14:05;;;;;;;;;;;10.80;99.90;;;;;;5060020;28;20358;-76
2023/10/29 07:16:32;;;;;;;;;;;10.90;99.90;;;;;;5064776;28;19992;-75
2023/10/29 07:18:59;;;;;;;;;;;10.90;99.90;;;;;;5059844;28;20154;-75
2023/10/29 07:21:26;;;;;;;;;;;10.90;99.90;;;;;;5064248;28;19921;-75
2023/10/29 07:23:52;;;;;;;;;;;11.00;99.90;;;;;;5064391;28;19962;-75
2023/10/29 07:26:19;;;;;;;;;;;11.00;99.90;;;;;;5064457;28;19992;-75
2023/10/29 07:28:46;;;;;;;;;;;11.10;99.90;;;;;;5064502;28;19927;-76
2023/10/29 07:31:14;;;;;;;;;;;11.10;99.90;;;;;;5064464;28;19921;-75
2023/10/29 07:33:40;;;;;;;;;;;11.10;99.90;;;;;;5064413;28;19920;-75
2023/10/29 07:36:07;;;;;;;;;;;11.00;99.90;;;;;;5064420;28;19921;-75
2023/10/29 07:38:34;;;;;;;;;;;11.00;99.90;;;;;;5064070;28;19979;-76
2023/10/29 07:41:01;;;;;;;;;;;11.00;99.90;;;;;;5063479;28;19959;-76
2023/10/29 07:43:27;;;;;;;;;;;11.00;99.90;;;;;;5064109;28;19925;-76
2023/10/29 07:45:54;;;;;;;;;;;11.10;99.90;;;;;;5063420;28;19956;-76
2023/10/29 07:48:22;;;;;;;;;;;11.10;99.90;;;;;;5064082;28;19920;-76
2023/10/29 07:50:52;;;;;;;;;;;11.10;99.90;;;;;;5064287;28;19953;-76
2023/10/29 07:53:19;;;;;;;;;;;11.10;99.90;;;;;;5064140;28;19988;-72
2023/10/29 07:55:45;;;;;;;;;;;11.10;99.90;;;;;;5063980;28;19959;-74
2023/10/29 07:58:12;;;;;;;;;;;11.10;99.90;;;;;;5063713;28;19921;-74
2023/10/29 08:00:39;;;;;;;;;;;11.10;99.90;;;;;;5064267;28;19955;-74
2023/10/29 08:03:05;;;;;;;;;;;11.10;99.90;;;;;;5064009;28;19982;-74
2023/10/29 08:05:33;;;;;;;;;;;11.10;99.90;;;;;;5063867;28;19959;-74
2023/10/29 08:08:01;;;;;;;;;;;11.10;99.90;;;;;;5064588;28;19988;-74
2023/10/29 08:10:27;;;;;;;;;;;11.10;99.90;;;;;;5064154;28;19921;-75
2023/10/29 08:12:54;;;;;;;;;;;11.10;99.90;;;;;;5065482;28;19995;-74
2023/10/29 08:15:21;;;;;;;;;;;11.10;99.90;;;;;;5064115;28;19920;-74
2023/10/29 08:17:47;;;;;;;;;;;11.10;99.90;;;;;;5064997;28;20004;-74
2023/10/29 08:20:14;;;;;;;;;;;11.10;99.90;;;;;;5065282;28;20285;-74
2023/10/29 08:22:42;;;;;;;;;;;11.10;99.90;;;;;;5064269;28;19921;-74
2023/10/29 08:25:10;;;;;;;;;;;11.20;99.90;;;;;;5064436;28;19984;-75
2023/10/29 08:27:38;;;;;;;;;;;11.20;99.90;;;;;;5063692;28;19943;-74
2023/10/29 08:30:05;;;;;;;;;;;11.20;99.90;;;;;;5063367;28;19963;-74
2023/10/29 08:32:33;;;;;;;;;;;11.20;99.90;;;;;;5063510;28;19927;-74
2023/10/29 08:34:59;;;;;;;;;;;11.30;99.90;;;;;;5063361;28;19927;-75
2023/10/29 08:37:26;;;;;;;;;;;11.30;99.90;;;;;;5063283;28;20168;-74
2023/10/29 08:39:57;;;;;;;;;;;11.40;99.90;;;;;;5063302;28;19920;-74
2023/10/29 08:42:24;;;;;;;;;;;11.40;99.90;;;;;;5063247;28;20023;-75
2023/10/29 08:44:55;;;;;;;;;;;11.50;99.90;;;;;;5063285;28;19921;-74
2023/10/29 08:47:22;;;;;;;;;;;11.60;99.90;;;;;;5063349;28;19984;-74
2023/10/29 08:49:48;;;;;;;;;;;11.60;99.90;;;;;;5062932;28;20229;-74
2023/10/29 08:52:15;;;;;;;;;;;11.70;99.90;;;;;;5064694;28;19988;-73
2023/10/29 08:54:42;;;;;;;;;;;11.80;99.90;;;;;;5063930;28;19924;-74
2023/10/29 08:57:10;;;;;;;;;;;11.90;99.90;;;;;;5065460;28;20164;-74
2023/10/29 08:59:37;;;;;;;;;;;12.00;99.90;;;;;;5064533;28;20210;-74
2023/10/29 09:02:03;;;;;;;;;;;12.10;99.90;;;;;;5067470;28;19991;-74
2023/10/29 09:04:30;;;;;;;;;;;12.10;99.90;;;;;;5067288;28;19956;-74
2023/10/29 09:06:57;;;;;;;;;;;12.10;99.90;;;;;;5067446;28;19959;-74
2023/10/29 09:09:23;;;;;;;;;;;12.20;99.90;;;;;;5067150;28;19955;-74
2023/10/29 09:11:53;;;;;;;;;;;12.20;99.90;;;;;;5067070;28;20262;-75
2023/10/29 09:14:21;;;;;;;;;;;12.30;99.90;;;;;;5067185;28;19944;-75
2023/10/29 09:16:48;;;;;;;;;;;12.30;99.90;;;;;;5066951;28;19944;-74
2023/10/29 09:19:14;;;;;;;;;;;12.30;99.90;;;;;;5066274;28;19948;-73
2023/10/29 09:21:41;;;;;;;;;;;12.30;99.90;;;;;;5066010;28;19995;-76
2023/10/29 09:24:08;;;;;;;;;;;12.40;99.90;;;;;;5095981;22;19920;-70
2023/10/29 09:26:36;;;;;;;;;;;12.40;99.90;;;;;;5078183;28;20172;-70
2023/10/29 09:29:02;;;;;;;;;;;12.50;99.90;;;;;;5085377;28;19927;-70
2023/10/29 09:31:30;;;;;;;;;;;12.50;99.90;;;;;;5085552;28;19999;-70
2023/10/29 09:33:57;;;;;;;;;;;12.50;99.90;;;;;;5076650;28;19964;-70
2023/10/29 09:36:24;;;;;;;;;;;12.50;99.90;;;;;;5065584;28;19984;-70
2023/10/29 09:38:50;;;;;;;;;;;12.60;99.90;;;;;;5065942;28;19956;-70
2023/10/29 09:41:17;;;;;;;;;;;12.60;99.90;;;;;;5065971;28;20268;-70
2023/10/29 09:43:46;;;;;;;;;;;12.70;99.90;;;;;;5066243;28;19962;-70
2023/10/29 09:46:13;;;;;;;;;;;12.70;99.90;;;;;;5066402;28;19928;-70
2023/10/29 09:48:43;;;;;;;;;;;12.80;99.90;;;;;;5065605;28;19920;-70
2023/10/29 09:51:10;;;;;;;;;;;12.90;99.90;;;;;;5065629;28;19921;-70
2023/10/29 09:53:37;;;;;;;;;;;12.90;99.90;;;;;;5065878;28;19964;-70
2023/10/29 09:56:06;;;;;;;;;;;13.00;99.90;;;;;;5064348;28;19960;-70
2023/10/29 09:58:34;;;;;;;;;;;13.00;99.90;;;;;;5064757;28;20214;-71
2023/10/29 10:01:03;;;;;;;;;;;13.10;99.90;;;;;;5064091;28;19962;-71
2023/10/29 10:03:30;;;;;;;;;;;13.20;99.90;;;;;;5065550;28;19920;-72
2023/10/29 10:05:58;;;;;;;;;;;13.40;99.90;;;;;;5065672;28;19979;-72
2023/10/29 10:08:25;;;;;;;;;;;13.40;99.90;;;;;;5064125;28;19966;-72
2023/10/29 10:10:52;;;;;;;;;;;13.50;99.90;;;;;;5065388;28;20209;-73
2023/10/29 10:13:19;;;;;;;;;;;13.50;99.90;;;;;;5060931;28;19987;-72
2023/10/29 10:15:48;;;;;;;;;;;13.50;99.90;;;;;;5065775;28;20009;-72
2023/10/29 10:18:15;;;;;;;;;;;13.50;99.90;;;;;;5065568;28;19964;-72
2023/10/29 10:20:41;;;;;;;;;;;13.60;99.90;;;;;;5065479;28;19920;-72
2023/10/29 10:23:11;;;;;;;;;;;13.70;99.90;;;;;;5065516;28;19991;-74
2023/10/29 10:25:38;;;;;;;;;;;13.80;99.90;;;;;;5065418;28;19976;-72
2023/10/29 10:28:05;;;;;;;;;;;13.80;99.90;;;;;;5065357;28;19960;-72
2023/10/29 10:30:33;;;;;;;;;;;13.90;99.90;;;;;;5065618;28;19960;-72
2023/10/29 10:33:09;;;;;;;;;;;13.90;99.90;;;;;;5065051;28;20163;-72
2023/10/29 10:35:40;;;;;;;;;;;14.00;99.90;;;;;;5063772;28;20153;-72
2023/10/29 10:38:07;;;;;;;;;;;14.00;99.90;;;;;;5069319;28;19921;-72
2023/10/29 10:40:35;;;;;;;;;;;14.10;99.90;;;;;;5064981;28;19963;-72
2023/10/29 10:43:02;;;;;;;;;;;14.10;99.90;;;;;;5065173;28;19991;-72
2023/10/29 10:45:29;;;;;;;;;;;14.20;99.90;;;;;;5065252;28;19955;-72
2023/10/29 10:47:57;;;;;;;;;;;14.20;99.90;;;;;;5065056;28;19980;-72
2023/10/29 10:50:24;;;;;;;;;;;14.20;99.90;;;;;;5064924;28;19928;-73
2023/10/29 10:52:52;;;;;;;;;;;14.20;99.90;;;;;;5065042;28;19920;-72
2023/10/29 10:55:18;;;;;;;;;;;14.20;99.90;;;;;;5064749;28;19925;-72
2023/10/29 10:57:47;;;;;;;;;;;14.20;99.90;;;;;;5064793;28;19980;-72
2023/10/29 11:00:15;;;;;;;;;;;14.20;99.90;;;;;;5064904;28;20229;-72
2023/10/29 11:02:42;;;;;;;;;;;14.10;99.90;;;;;;5064399;28;20248;-72
2023/10/29 11:05:09;;;;;;;;;;;14.10;99.90;;;;;;5064616;28;19960;-72
2023/10/29 11:07:37;;;;;;;;;;;14.10;99.90;;;;;;5064217;28;19920;-72
2023/10/29 11:10:03;;;;;;;;;;;14.00;99.90;;;;;;5064388;28;19987;-73
2023/10/29 11:12:33;;;;;;;;;;;13.90;99.90;;;;;;5064830;28;20015;-72
2023/10/29 11:15:14;;;;;;;;;;;13.90;99.90;;;;;;5064687;28;19959;-70
2023/10/29 11:17:51;;;;;;;;;;;13.90;99.90;;;;;;5064143;28;20184;-70
2023/10/29 11:20:32;;;;;;;;;;;13.80;99.90;;;;;;5063658;28;20273;-70
2023/10/29 11:23:06;;;;;;;;;;;13.80;99.90;;;;;;5063880;28;19992;-69
2023/10/29 11:25:33;;;;;;;;;;;13.80;99.90;;;;;;5064396;28;19959;-70
2023/10/29 11:28:01;;;;;;;;;;;13.90;99.90;;;;;;5055975;28;20063;-70
2023/10/29 11:30:29;;;;;;;;;;;13.90;99.90;;;;;;5064269;28;19984;-70
2023/10/29 11:33:15;;;;;;;;;;;13.90;99.90;;;;;;5064039;28;20232;-70
2023/10/29 11:35:41;;;;;;;;;;;13.90;99.90;;;;;;5064289;28;20158;-70
2023/10/29 11:38:23;;;;;;;;;;;13.90;99.90;;;;;;5064588;28;19921;-70
2023/10/29 11:40:50;;;;;;;;;;;13.90;99.90;;;;;;5063734;28;19921;-71
2023/10/29 11:43:17;;;;;;;;;;;13.90;99.90;;;;;;5063919;28;19927;-70
2023/10/29 11:45:58;;;;;;;;;;;13.90;99.90;;;;;;5064343;28;19921;-70
2023/10/29 11:48:25;;;;;;;;;;;13.90;99.90;;;;;;5063964;28;19971;-70
2023/10/29 11:51:10;;;;;;;;;;;13.90;99.90;;;;;;5063732;28;19928;-68
2023/10/29 11:53:37;;;;;;;;;;;13.80;99.90;;;;;;5063656;28;20121;-70
2023/10/29 11:56:06;;;;;;;;;;;13.80;99.90;;;;;;5064085;28;19987;-70
2023/10/29 11:58:32;;;;;;;;;;;13.80;99.90;;;;;;5063646;28;20121;-70
2023/10/29 12:00:59;;;;;;;;;;;13.70;99.90;;;;;;5063822;28;19984;-69
2023/10/29 12:03:26;;;;;;;;;;;13.70;99.90;;;;;;5063391;28;19963;-69
2023/10/29 12:05:54;;;;;;;;;;;13.70;99.90;;;;;;5063709;28;19925;-69
2023/10/29 12:08:21;;;;;;;;;;;13.70;99.90;;;;;;5063276;28;19927;-68
2023/10/29 12:10:48;;;;;;;;;;;13.70;99.90;;;;;;5063513;28;19952;-71
2023/10/29 12:13:14;;;;;;;;;;;13.80;99.90;;;;;;5063452;28;20304;-75
2023/10/29 12:15:45;;;;;;;;;;;13.80;99.90;;;;;;5063287;28;20004;-71
2023/10/29 12:18:20;;;;;;;;;;;13.70;99.90;;;;;;5062787;28;19952;-71
2023/10/29 12:20:47;;;;;;;;;;;13.70;99.90;;;;;;5063328;28;19921;-71
2023/10/29 12:23:13;;;;;;;;;;;13.70;99.90;;;;;;5062840;28;19994;-71
2023/10/29 12:25:40;;;;;;;;;;;13.70;99.90;;;;;;5063067;28;19983;-71
2023/10/29 12:28:08;;;;;;;;;;;13.70;99.90;;;;;;5062931;28;19940;-71
2023/10/29 12:30:34;;;;;;;;;;;13.70;99.90;;;;;;5063189;28;19948;-72
2023/10/29 12:33:16;;;;;;;;;;;13.80;99.90;;;;;;5055241;28;19917;-72
2023/10/29 12:35:45;;;;;;;;;;;13.80;99.90;;;;;;5065306;28;20248;-72
2023/10/29 12:38:12;;;;;;;;;;;13.90;99.90;;;;;;5064490;28;19967;-72
2023/10/29 12:40:39;;;;;;;;;;;14.10;99.90;;;;;;5066367;28;19955;-73
2023/10/29 12:43:06;;;;;;;;;;;14.30;99.90;;;;;;5066575;28;20121;-72
2023/10/29 12:45:32;;;;;;;;;;;14.40;99.90;;;;;;5067558;28;19956;-70
2023/10/29 12:48:08;;;;;;;;;;;14.50;99.90;;;;;;5078224;28;19917;-70
2023/10/29 12:50:45;;;;;;;;;;;14.60;99.90;;;;;;5060422;28;19963;-70
2023/10/29 12:53:12;;;;;;;;;;;14.70;99.90;;;;;;5063566;28;19957;-69
2023/10/29 12:55:43;;;;;;;;;;;14.70;99.90;;;;;;5062867;28;19921;-70
2023/10/29 12:58:10;;;;;;;;;;;14.80;99.90;;;;;;5062810;28;19956;-70
2023/10/29 13:00:37;;;;;;;;;;;14.70;99.90;;;;;;5066333;28;20068;-71
2023/10/29 13:03:04;;;;;;;;;;;14.70;99.90;;;;;;5063069;28;19920;-68
2023/10/29 13:05:31;;;;;;;;;;;14.70;99.90;;;;;;5062093;28;19924;-69
2023/10/29 13:07:59;;;;;;;;;;;14.60;99.90;;;;;;5061763;28;20151;-69
2023/10/29 13:10:26;;;;;;;;;;;14.60;99.90;;;;;;5061661;28;19952;-69
2023/10/29 13:12:53;;;;;;;;;;;14.70;99.90;;;;;;5062328;28;19963;-69
2023/10/29 13:15:19;;;;;;;;;;;14.70;99.90;;;;;;5062929;28;20185;-69
2023/10/29 13:17:47;;;;;;;;;;;14.70;99.90;;;;;;5061872;28;19921;-69
2023/10/29 13:20:14;;;;;;;;;;;14.80;99.90;;;;;;5062687;28;19925;-69
2023/10/29 13:22:42;;;;;;;;;;;15.00;99.90;;;;;;5062442;28;20154;-69
2023/10/29 13:25:11;;;;;;;;;;;15.30;99.90;;;;;;5062145;28;19921;-69
2023/10/29 13:27:38;;;;;;;;;;;15.70;99.90;;;;;;5062209;28;19928;-69
2023/10/29 13:30:05;;;;;;;;;;;16.00;99.90;;;;;;5062345;28;19936;-69
2023/10/29 13:32:33;;;;;;;;;;;16.30;99.90;;;;;;5061990;28;19983;-68
2023/10/29 13:35:00;;;;;;;;;;;16.50;99.90;;;;;;5053622;28;19929;-69
2023/10/29 13:37:28;;;;;;;;;;;16.60;99.90;;;;;;5061752;28;19988;-69
2023/10/29 13:39:55;;;;;;;;;;;16.70;99.90;;;;;;5062115;28;19983;-69
2023/10/29 13:42:23;;;;;;;;;;;16.80;99.90;;;;;;5064883;28;19921;-69
2023/10/29 13:44:51;;;;;;;;;;;16.80;99.90;;;;;;5065730;28;19983;-69
2023/10/29 13:47:18;;;;;;;;;;;16.90;99.90;;;;;;5070410;28;19921;-69
2023/10/29 13:49:45;;;;;;;;;;;16.90;99.90;;;;;;5065805;28;19921;-69
2023/10/29 13:52:12;;;;;;;;;;;16.90;99.90;;;;;;5065373;28;19967;-69
2023/10/29 13:54:39;;;;;;;;;;;16.80;99.90;;;;;;5065772;28;20257;-70
2023/10/29 13:57:05;;;;;;;;;;;16.80;99.90;;;;;;5068146;28;19921;-69
2023/10/29 13:59:33;;;;;;;;;;;16.70;99.90;;;;;;5065393;28;19921;-70
2023/10/29 14:02:00;;;;;;;;;;;16.60;99.90;;;;;;5057540;28;19980;-69
2023/10/29 14:04:27;;;;;;;;;;;16.50;99.90;;;;;;5065446;28;19994;-69
2023/10/29 14:06:53;;;;;;;;;;;16.50;99.90;;;;;;5065265;28;20221;-69
2023/10/29 14:09:21;;;;;;;;;;;16.30;99.90;;;;;;5065079;28;19997;-70
2023/10/29 14:11:48;;;;;;;;;;;16.20;99.90;;;;;;5065327;28;19964;-69
2023/10/29 14:14:14;;;;;;;;;;;16.20;99.90;;;;;;5064884;28;19956;-71
2023/10/29 14:16:42;;;;;;;;;;;16.10;99.90;;;;;;5064780;28;20261;-70